METAR Data
IDs: Format: Raw Decoded Include TAF

Data at: 2213 UTC 01 Dec 2021

ZSNJ 012200Z 00000MPS CAVOK M03/M03 Q1027 NOSIG